> <
  • 1
  • 2

Novidades

  • Temos o prazer de lhe apresentar… Ler mais +
  • Está disponível a secção Multimédia no… Ler mais +
  • 1
[source: ADDS]
METAR
LPPR 210100Z 12005KT 9999 BKN028 18/17 Q1021 =
TAF LPPR 202300Z 2100/2124 VRB03KT 9999 BKN008 TEMPO 2100/2109 3000 BR BKN002 PROB30 2105/2108 0800 FG BKN000 BECMG 2109/2111 33010KT FEW015 BECMG 2119/2121 VRB03KT 5000 BR SCT003
TAF
TAF LPPR 202300Z 2100/2124 VRB03KT 9999 BKN008 TEMPO 2100/2109 3000 BR BKN002 PROB30 2105/2108 0800 FG BKN000 BECMG 2109/2111 33010KT FEW015 BECMG 2119/2121 VRB03KT 5000 BR SCT003 =

contactos